Gaston, Oregon
Current Conditions -  °F | °C
As of 11:53 AM on Tuesday 21 Oct 2014 (Local Time) from KHIO Reporting Station
Overcast Overcast  
Wind Chill: 58°   Ceiling: 1900
Heat Index: 58°   Visibility: 10mi
Dew Point: 51°   Wind: 14mph
Humidity: 78%   Direction: 190°S
Pressure: 29.99"   Gusts: NA
Location:  45.44°N, 123.14°W
Report Text: KHIO 211853Z 19012KT 10SM BKN019 BKN070 OVC085 14/11 A2999 RMK AO2 SLP154 T01440106
Loading
Personal Weather Stations






























Interactive Weather Map
Tropical Storm Tracking
New forecast layout! Learn more

10-Day Weather Forecast

Advertisements
Track Severe Weather on mobile